createdAt,value
2019-01-24T00:00:39.916Z,18.53
2019-01-24T00:03:09.045Z,19.10
2019-01-24T00:05:38.181Z,17.43
2019-01-24T00:08:07.238Z,17.30
2019-01-24T00:10:36.320Z,17.30
2019-01-24T00:13:05.493Z,19.37
2019-01-24T00:15:34.621Z,19.37
2019-01-24T00:18:03.754Z,19.20
2019-01-24T00:20:32.951Z,18.40
2019-01-24T00:23:02.018Z,18.07
2019-01-24T00:25:31.113Z,16.53
2019-01-24T00:28:00.207Z,17.40
2019-01-24T00:30:29.373Z,17.93
2019-01-24T00:32:58.492Z,19.27
2019-01-24T00:35:27.651Z,19.17
2019-01-24T00:37:56.782Z,18.70
2019-01-24T00:40:25.968Z,18.13
2019-01-24T00:42:55.102Z,19.07
2019-01-24T00:45:24.198Z,19.00
2019-01-24T00:47:53.381Z,18.60
2019-01-24T00:50:22.573Z,18.63
2019-01-24T00:52:51.671Z,19.27
2019-01-24T00:55:21.487Z,18.50
2019-01-24T00:57:50.595Z,20.80
2019-01-24T01:00:21.842Z,20.23
2019-01-24T01:02:51.015Z,19.57
2019-01-24T01:05:20.326Z,17.83
2019-01-24T01:07:49.596Z,19.73
2019-01-24T01:10:18.718Z,19.70
2019-01-24T01:12:47.838Z,20.57
2019-01-24T01:15:17.963Z,19.70
2019-01-24T01:17:47.068Z,20.20
2019-01-24T01:20:20.849Z,18.23
2019-01-24T01:22:50.073Z,19.37
2019-01-24T01:25:19.210Z,19.53
2019-01-24T01:27:48.367Z,19.37
2019-01-24T01:30:19.579Z,20.03
2019-01-24T01:32:48.712Z,20.73
2019-01-24T01:35:17.909Z,18.90
2019-01-24T01:37:46.964Z,19.93
2019-01-24T01:40:16.630Z,18.67
2019-01-24T01:42:45.739Z,19.87
2019-01-24T01:45:16.952Z,19.03
2019-01-24T01:47:46.118Z,20.27
2019-01-24T01:50:16.966Z,19.37
2019-01-24T01:52:46.060Z,17.57
2019-01-24T01:55:15.440Z,20.07
2019-01-24T01:57:44.617Z,19.03
2019-01-24T02:00:18.703Z,20.57
2019-01-24T02:02:47.840Z,20.73
2019-01-24T02:05:17.004Z,20.20
2019-01-24T02:07:46.172Z,21.13
2019-01-24T02:10:17.386Z,21.10
2019-01-24T02:12:46.571Z,17.90
2019-01-24T02:15:15.943Z,20.03
2019-01-24T02:17:45.240Z,21.83
2019-01-24T02:20:16.986Z,20.07
2019-01-24T02:22:46.039Z,19.93
2019-01-24T02:25:15.137Z,19.90
2019-01-24T02:27:44.215Z,20.03
2019-01-24T02:30:18.992Z,19.60
2019-01-24T02:32:48.212Z,21.77
2019-01-24T02:35:17.330Z,19.23
2019-01-24T02:37:46.522Z,19.20
2019-01-24T02:40:15.646Z,17.50
2019-01-24T02:42:44.769Z,17.93
2019-01-24T02:45:15.078Z,17.73
2019-01-24T02:47:44.217Z,18.90
2019-01-24T02:50:15.060Z,18.43
2019-01-24T02:52:44.155Z,20.60
2019-01-24T02:55:14.419Z,19.17
2019-01-24T02:57:43.827Z,18.70
2019-01-24T03:00:15.382Z,19.30
2019-01-24T03:02:44.482Z,20.13
2019-01-24T03:05:15.090Z,17.50
2019-01-24T03:07:44.264Z,19.47
2019-01-24T03:10:13.947Z,17.50
2019-01-24T03:12:43.093Z,19.13
2019-01-24T03:15:13.929Z,17.73
2019-01-24T03:17:43.115Z,19.30
2019-01-24T03:20:12.360Z,17.67
2019-01-24T03:22:42.360Z,18.03
2019-01-24T03:25:11.461Z,17.60
2019-01-24T03:27:40.624Z,19.87
2019-01-24T03:30:15.263Z,20.47
2019-01-24T03:32:44.355Z,19.33
2019-01-24T03:35:15.692Z,18.63
2019-01-24T03:37:44.862Z,17.50
2019-01-24T03:40:14.301Z,18.23
2019-01-24T03:42:43.437Z,19.03
2019-01-24T03:45:14.043Z,17.37
2019-01-24T03:47:43.185Z,18.67
2019-01-24T03:50:14.841Z,16.93
2019-01-24T03:52:43.994Z,17.70
2019-01-24T03:55:14.158Z,17.80
2019-01-24T03:57:43.269Z,18.00
2019-01-24T04:00:17.790Z,17.70
2019-01-24T04:02:46.938Z,17.97
2019-01-24T04:05:16.136Z,17.87
2019-01-24T04:07:45.337Z,16.67
2019-01-24T04:10:16.288Z,17.27
2019-01-24T04:12:45.395Z,17.27
2019-01-24T04:15:16.662Z,16.83
2019-01-24T04:17:45.763Z,17.47
2019-01-24T04:20:14.835Z,16.07
2019-01-24T04:22:44.002Z,16.77
2019-01-24T04:25:13.427Z,18.17
2019-01-24T04:27:42.537Z,16.73
2019-01-24T04:30:14.276Z,16.53
2019-01-24T04:32:43.403Z,17.33
2019-01-24T04:35:19.429Z,15.77
2019-01-24T04:37:43.339Z,17.90
2019-01-24T04:40:14.358Z,17.40
2019-01-24T04:42:43.507Z,17.80
2019-01-24T04:45:13.547Z,18.37
2019-01-24T04:47:42.602Z,16.17
2019-01-24T04:50:13.611Z,16.40
2019-01-24T04:52:42.783Z,16.83
2019-01-24T04:55:13.129Z,16.03
2019-01-24T04:57:42.251Z,17.00
2019-01-24T05:00:28.489Z,18.20
2019-01-24T05:02:57.579Z,17.53
2019-01-24T05:05:28.077Z,17.00
2019-01-24T05:07:57.364Z,17.77
2019-01-24T05:10:26.476Z,18.23
2019-01-24T05:12:55.610Z,18.13
2019-01-24T05:15:24.796Z,16.90
2019-01-24T05:17:54.006Z,16.97
2019-01-24T05:20:23.188Z,17.80
2019-01-24T05:22:52.226Z,17.13
2019-01-24T05:25:21.377Z,15.87
2019-01-24T05:27:50.438Z,18.03
2019-01-24T05:30:24.346Z,16.33
2019-01-24T05:32:55.273Z,17.43
2019-01-24T05:35:24.507Z,16.80
2019-01-24T05:37:53.620Z,17.97
2019-01-24T05:40:22.786Z,17.33
2019-01-24T05:42:51.889Z,16.93
2019-01-24T05:45:20.971Z,16.90
2019-01-24T05:47:50.057Z,17.47
2019-01-24T05:50:19.123Z,17.37
2019-01-24T05:52:48.268Z,17.37
2019-01-24T05:55:17.684Z,18.97
2019-01-24T05:57:46.849Z,19.67
2019-01-24T06:00:22.408Z,16.93
2019-01-24T06:02:51.478Z,16.07
2019-01-24T06:05:20.714Z,17.90
2019-01-24T06:07:49.855Z,17.10
2019-01-24T06:10:19.052Z,17.17
2019-01-24T06:12:48.111Z,17.87
2019-01-24T06:15:17.276Z,17.73
2019-01-24T06:17:46.352Z,16.90
2019-01-24T06:20:15.426Z,16.33
2019-01-24T06:22:44.608Z,16.17
2019-01-24T06:25:13.872Z,16.63
2019-01-24T06:27:43.014Z,17.27
2019-01-24T06:30:17.334Z,15.37
2019-01-24T06:32:46.468Z,15.97
2019-01-24T06:35:15.530Z,14.80
2019-01-24T06:37:44.670Z,16.33
2019-01-24T06:40:14.564Z,15.67
2019-01-24T06:42:43.720Z,14.33
2019-01-24T06:45:17.897Z,15.10
2019-01-24T06:47:47.065Z,15.53
2019-01-24T06:50:16.740Z,15.13
2019-01-24T06:52:45.836Z,16.13
2019-01-24T06:55:17.516Z,15.63
2019-01-24T06:57:46.845Z,14.63
2019-01-24T07:00:16.889Z,15.67
2019-01-24T07:02:46.100Z,15.53
2019-01-24T07:05:15.345Z,14.50
2019-01-24T07:07:44.575Z,14.10
2019-01-24T07:10:15.602Z,14.47
2019-01-24T07:12:44.766Z,15.07
2019-01-24T07:15:18.702Z,15.73
2019-01-24T07:17:47.740Z,14.70
2019-01-24T07:20:17.223Z,15.47
2019-01-24T07:22:46.359Z,15.27
2019-01-24T07:25:17.849Z,14.27
2019-01-24T07:27:46.933Z,14.93
2019-01-24T07:30:16.687Z,15.70
2019-01-24T07:32:45.888Z,14.07
2019-01-24T07:35:16.169Z,15.07
2019-01-24T07:37:45.275Z,16.07
2019-01-24T07:40:15.567Z,15.43
2019-01-24T07:42:44.676Z,15.43
2019-01-24T07:45:15.981Z,15.27
2019-01-24T07:47:45.132Z,14.47
2019-01-24T07:50:14.276Z,16.07
2019-01-24T07:52:43.429Z,15.67
2019-01-24T07:55:12.732Z,14.80
2019-01-24T07:57:41.991Z,15.03
2019-01-24T08:00:17.156Z,15.17
2019-01-24T08:02:46.241Z,16.07
2019-01-24T08:05:15.409Z,15.13
2019-01-24T08:07:44.563Z,15.23
2019-01-24T08:10:14.864Z,14.67
2019-01-24T08:12:44.043Z,15.60
2019-01-24T08:15:14.277Z,14.93
2019-01-24T08:17:43.545Z,14.67
2019-01-24T08:20:21.067Z,14.23
2019-01-24T08:22:50.109Z,14.00
2019-01-24T08:25:19.189Z,16.00
2019-01-24T08:27:48.312Z,16.03
2019-01-24T08:30:19.378Z,15.57
2019-01-24T08:32:48.499Z,15.20
2019-01-24T08:35:17.695Z,15.87
2019-01-24T08:37:46.931Z,14.33
2019-01-24T08:40:16.205Z,16.90
2019-01-24T08:42:45.266Z,15.80
2019-01-24T08:45:15.039Z,16.67
2019-01-24T08:47:44.136Z,15.73
2019-01-24T08:50:15.666Z,15.90
2019-01-24T08:52:44.830Z,16.37
2019-01-24T08:55:19.966Z,16.40
2019-01-24T08:57:49.000Z,13.23
2019-01-24T09:00:19.364Z,17.37
2019-01-24T09:02:48.588Z,16.17
2019-01-24T09:05:17.731Z,16.90
2019-01-24T09:07:46.946Z,18.00
2019-01-24T09:10:18.944Z,16.13
2019-01-24T09:12:48.040Z,16.03
2019-01-24T09:15:17.176Z,15.80
2019-01-24T09:17:46.242Z,15.70
2019-01-24T09:20:16.036Z,16.63
2019-01-24T09:22:45.217Z,16.33
2019-01-24T09:25:14.357Z,15.53
2019-01-24T09:27:43.507Z,16.80
2019-01-24T09:30:15.363Z,15.73
2019-01-24T09:32:44.477Z,15.07
2019-01-24T09:35:13.565Z,14.63
2019-01-24T09:37:42.628Z,16.77
2019-01-24T09:40:12.589Z,16.30
2019-01-24T09:42:41.727Z,16.40
2019-01-24T09:45:13.574Z,15.13
2019-01-24T09:47:42.715Z,15.17
2019-01-24T09:50:14.349Z,13.53
2019-01-24T09:52:43.422Z,14.97
2019-01-24T09:55:12.511Z,16.30
2019-01-24T09:57:41.591Z,13.40
2019-01-24T10:00:15.640Z,15.70
2019-01-24T10:02:44.806Z,14.30
2019-01-24T10:05:14.003Z,14.83
2019-01-24T10:07:43.134Z,14.47
2019-01-24T10:10:14.601Z,13.27
2019-01-24T10:12:43.812Z,13.70
2019-01-24T10:15:13.094Z,13.60
2019-01-24T10:17:42.239Z,13.10
2019-01-24T10:20:13.100Z,11.70
2019-01-24T10:22:42.245Z,11.03
2019-01-24T10:25:15.527Z,11.30
2019-01-24T10:27:44.637Z,9.67
2019-01-24T10:30:15.173Z,11.37
2019-01-24T10:32:44.328Z,10.80
2019-01-24T10:35:13.461Z,10.93
2019-01-24T10:37:42.645Z,10.20
2019-01-24T10:40:14.765Z,10.57
2019-01-24T10:42:43.824Z,10.30
2019-01-24T10:45:14.229Z,9.53
2019-01-24T10:47:43.366Z,10.83
2019-01-24T10:50:13.722Z,10.33
2019-01-24T10:52:42.842Z,10.17
2019-01-24T10:55:13.937Z,10.13
2019-01-24T10:57:43.173Z,10.30
2019-01-24T11:00:15.335Z,8.97
2019-01-24T11:02:44.469Z,9.77
2019-01-24T11:05:14.608Z,10.20
2019-01-24T11:07:43.654Z,10.23
2019-01-24T11:10:13.057Z,11.40
2019-01-24T11:12:42.298Z,9.03
2019-01-24T11:15:14.283Z,9.20
2019-01-24T11:17:43.403Z,8.47
2019-01-24T11:20:13.309Z,9.53
2019-01-24T11:22:42.422Z,8.70
2019-01-24T11:25:16.606Z,8.83
2019-01-24T11:27:45.906Z,8.40
2019-01-24T11:30:20.401Z,8.97
2019-01-24T11:32:49.478Z,8.27
2019-01-24T11:35:18.900Z,7.60
2019-01-24T11:37:47.957Z,6.97
2019-01-24T11:40:17.530Z,7.30
2019-01-24T11:42:46.852Z,7.53
2019-01-24T11:45:16.791Z,7.30
2019-01-24T11:47:46.007Z,8.13
2019-01-24T11:50:18.708Z,7.00
2019-01-24T11:52:47.770Z,7.57
2019-01-24T11:55:18.173Z,6.73
2019-01-24T11:57:47.371Z,9.00
2019-01-24T12:00:21.557Z,7.00
2019-01-24T12:02:50.714Z,7.47
2019-01-24T12:05:19.873Z,6.40
2019-01-24T12:07:49.026Z,6.87
2019-01-24T12:10:20.015Z,6.50
2019-01-24T12:12:49.362Z,6.03
2019-01-24T12:15:19.680Z,5.63
2019-01-24T12:17:48.772Z,6.03
2019-01-24T12:20:19.397Z,5.33
2019-01-24T12:22:48.536Z,5.07
2019-01-24T12:25:17.736Z,4.90
2019-01-24T12:27:47.647Z,5.10
2019-01-24T12:30:22.420Z,5.67
2019-01-24T12:32:51.495Z,5.27
2019-01-24T12:35:20.656Z,4.73
2019-01-24T12:37:49.825Z,4.87
2019-01-24T12:40:18.886Z,3.80
2019-01-24T12:42:48.012Z,5.00
2019-01-24T12:45:19.526Z,5.07
2019-01-24T12:47:48.604Z,4.97
2019-01-24T12:50:18.033Z,5.43
2019-01-24T12:52:47.171Z,5.77
2019-01-24T12:55:16.372Z,5.63
2019-01-24T12:57:45.618Z,5.20
2019-01-24T13:00:34.900Z,5.90
2019-01-24T13:03:03.970Z,6.43
2019-01-24T13:05:33.035Z,5.70
2019-01-24T13:08:02.104Z,5.70
2019-01-24T13:10:31.374Z,7.70
2019-01-24T13:13:00.515Z,5.80
2019-01-24T13:15:31.503Z,6.20
2019-01-24T13:18:00.628Z,6.00
2019-01-24T13:20:29.760Z,6.30
2019-01-24T13:22:58.880Z,5.30
2019-01-24T13:25:32.946Z,5.87
2019-01-24T13:28:02.228Z,5.80
2019-01-24T13:30:32.738Z,5.97
2019-01-24T13:33:01.996Z,4.83
2019-01-24T13:35:31.145Z,4.70
2019-01-24T13:38:00.321Z,5.27
2019-01-24T13:40:30.758Z,5.27
2019-01-24T13:43:00.542Z,4.57
2019-01-24T13:45:34.486Z,5.07
2019-01-24T13:48:03.489Z,5.33
2019-01-24T13:50:32.585Z,4.93
2019-01-24T13:53:01.746Z,4.83
2019-01-24T13:55:30.861Z,4.80
2019-01-24T13:58:00.238Z,4.70
2019-01-24T14:00:34.497Z,5.10
2019-01-24T14:03:09.866Z,4.70
2019-01-24T14:05:38.961Z,5.10
2019-01-24T14:08:08.093Z,4.93
2019-01-24T14:10:37.227Z,4.67
2019-01-24T14:13:06.358Z,5.23
2019-01-24T14:15:35.466Z,4.53
2019-01-24T14:18:04.681Z,4.30
2019-01-24T14:20:33.747Z,5.30
2019-01-24T14:23:02.872Z,5.40
2019-01-24T14:25:32.020Z,5.37
2019-01-24T14:28:01.192Z,5.07
2019-01-24T14:30:30.550Z,4.63
2019-01-24T14:32:59.681Z,5.73
2019-01-24T14:35:28.736Z,5.50
2019-01-24T14:37:57.915Z,5.20
2019-01-24T14:40:27.068Z,4.77
2019-01-24T14:42:56.297Z,5.07
2019-01-24T14:45:25.490Z,5.47
2019-01-24T14:47:54.591Z,5.63
2019-01-24T14:50:24.959Z,4.93
2019-01-24T14:52:54.118Z,4.37
2019-01-24T14:55:23.174Z,4.47
2019-01-24T14:57:52.246Z,3.97
2019-01-24T15:00:42.251Z,5.07
2019-01-24T15:03:11.405Z,5.00
2019-01-24T15:05:40.555Z,4.63
2019-01-24T15:08:09.712Z,4.57
2019-01-24T15:10:38.857Z,3.90
2019-01-24T15:13:07.995Z,4.70
2019-01-24T15:15:37.117Z,4.70
2019-01-24T15:18:06.208Z,4.23
2019-01-24T15:20:35.350Z,5.13
2019-01-24T15:23:04.481Z,3.77
2019-01-24T15:25:33.610Z,3.97
2019-01-24T15:28:02.653Z,3.30
2019-01-24T15:30:31.966Z,3.87
2019-01-24T15:33:01.185Z,3.77
2019-01-24T15:35:30.277Z,3.77
2019-01-24T15:37:59.388Z,4.10
2019-01-24T15:40:30.059Z,3.40
2019-01-24T15:42:59.175Z,4.27
2019-01-24T15:45:28.245Z,4.23
2019-01-24T15:47:58.370Z,3.87
2019-01-24T15:50:27.434Z,3.50
2019-01-24T15:52:56.542Z,3.93
2019-01-24T15:55:25.737Z,3.63
2019-01-24T15:57:54.905Z,3.70
2019-01-24T16:00:29.236Z,3.90
2019-01-24T16:02:58.304Z,3.53
2019-01-24T16:05:27.391Z,4.20
2019-01-24T16:08:01.623Z,3.90
2019-01-24T16:10:27.349Z,3.70
2019-01-24T16:12:56.483Z,3.87
2019-01-24T16:15:33.569Z,3.57
2019-01-24T16:18:02.704Z,3.43
2019-01-24T16:20:31.831Z,5.73
2019-01-24T16:23:00.928Z,5.77
2019-01-24T16:25:31.241Z,4.90
2019-01-24T16:28:00.355Z,2.73
2019-01-24T16:30:30.805Z,3.37
2019-01-24T16:33:00.243Z,3.63
2019-01-24T16:35:29.433Z,3.77
2019-01-24T16:37:58.681Z,3.80
2019-01-24T16:40:28.465Z,3.80
2019-01-24T16:42:57.576Z,3.53
2019-01-24T16:45:27.981Z,2.67
2019-01-24T16:47:57.158Z,3.43
2019-01-24T16:50:26.705Z,3.93
2019-01-24T16:52:55.856Z,3.30
2019-01-24T16:55:25.138Z,3.70
2019-01-24T16:57:54.916Z,3.57
2019-01-24T17:00:29.597Z,3.97
2019-01-24T17:02:58.803Z,3.80
2019-01-24T17:05:27.939Z,3.33
2019-01-24T17:07:57.140Z,3.03
2019-01-24T17:10:26.334Z,3.43
2019-01-24T17:12:55.454Z,3.60
2019-01-24T17:15:24.463Z,2.87
2019-01-24T17:17:53.540Z,3.00
2019-01-24T17:20:24.418Z,2.20
2019-01-24T17:22:53.614Z,2.20
2019-01-24T17:25:24.303Z,2.23
2019-01-24T17:27:53.531Z,1.77
2019-01-24T17:30:24.302Z,2.13
2019-01-24T17:32:53.391Z,2.53
2019-01-24T17:35:22.657Z,2.60
2019-01-24T17:37:51.798Z,2.50
2019-01-24T17:40:23.189Z,2.80
2019-01-24T17:42:52.314Z,2.87
2019-01-24T17:45:21.495Z,2.50
2019-01-24T17:47:50.693Z,2.63
2019-01-24T17:50:19.819Z,2.60
2019-01-24T17:52:48.890Z,2.83
2019-01-24T17:55:20.678Z,2.50
2019-01-24T17:57:49.774Z,2.80
2019-01-24T18:00:20.533Z,2.60
2019-01-24T18:02:49.695Z,2.80
2019-01-24T18:05:18.885Z,2.40
2019-01-24T18:07:47.949Z,2.43
2019-01-24T18:10:19.486Z,3.07
2019-01-24T18:12:48.637Z,2.70
2019-01-24T18:15:23.005Z,2.60
2019-01-24T18:17:52.115Z,2.37
2019-01-24T18:20:22.484Z,2.67
2019-01-24T18:22:51.583Z,2.57
2019-01-24T18:25:20.639Z,2.93
2019-01-24T18:27:49.708Z,3.17
2019-01-24T18:30:23.504Z,2.43
2019-01-24T18:32:52.693Z,2.70
2019-01-24T18:35:21.812Z,2.80
2019-01-24T18:37:51.177Z,2.57
2019-01-24T18:40:21.786Z,2.30
2019-01-24T18:42:50.996Z,3.10
2019-01-24T18:45:22.935Z,3.23
2019-01-24T18:47:51.995Z,3.03
2019-01-24T18:50:21.643Z,3.10
2019-01-24T18:52:50.821Z,2.90
2019-01-24T18:55:19.925Z,4.00
2019-01-24T18:57:49.067Z,3.10
2019-01-24T19:00:24.154Z,3.00
2019-01-24T19:02:53.240Z,3.20
2019-01-24T19:05:22.314Z,3.07
2019-01-24T19:07:51.436Z,4.03
2019-01-24T19:10:20.489Z,2.70
2019-01-24T19:12:49.606Z,3.63
2019-01-24T19:15:19.026Z,3.73
2019-01-24T19:17:48.306Z,3.37
2019-01-24T19:20:17.406Z,3.17
2019-01-24T19:22:46.523Z,4.17
2019-01-24T19:25:15.693Z,3.37
2019-01-24T19:27:44.904Z,3.57
2019-01-24T19:30:17.795Z,3.47
2019-01-24T19:32:46.893Z,3.67
2019-01-24T19:35:15.979Z,2.97
2019-01-24T19:37:45.193Z,3.60
2019-01-24T19:40:15.467Z,3.20
2019-01-24T19:42:44.736Z,3.10
2019-01-24T19:45:18.860Z,3.80
2019-01-24T19:47:48.088Z,3.93
2019-01-24T19:50:19.606Z,3.23
2019-01-24T19:52:48.690Z,3.97
2019-01-24T19:55:17.830Z,4.07
2019-01-24T19:57:47.057Z,3.43
2019-01-24T20:00:20.963Z,3.27
2019-01-24T20:02:50.077Z,3.33
2019-01-24T20:05:19.308Z,3.57
2019-01-24T20:07:48.443Z,3.83
2019-01-24T20:10:19.251Z,4.23
2019-01-24T20:12:48.378Z,3.80
2019-01-24T20:15:21.887Z,3.67
2019-01-24T20:17:51.065Z,3.53
2019-01-24T20:20:20.182Z,3.87
2019-01-24T20:22:49.431Z,4.23
2019-01-24T20:25:19.813Z,4.03
2019-01-24T20:27:48.905Z,3.77
2019-01-24T20:30:23.092Z,4.53
2019-01-24T20:32:52.175Z,4.30
2019-01-24T20:35:23.829Z,5.17
2019-01-24T20:37:52.993Z,5.20
2019-01-24T20:40:22.333Z,5.13
2019-01-24T20:42:51.492Z,7.40
2019-01-24T20:45:20.625Z,5.83
2019-01-24T20:47:49.712Z,13.73
2019-01-24T20:50:18.802Z,9.87
2019-01-24T20:52:47.923Z,7.50
2019-01-24T20:55:17.094Z,10.13
2019-01-24T20:57:46.259Z,5.57
2019-01-24T21:00:17.302Z,11.83
2019-01-24T21:02:46.354Z,4.73
2019-01-24T21:05:17.279Z,5.80
2019-01-24T21:07:46.469Z,6.20
2019-01-24T21:10:20.467Z,5.60
2019-01-24T21:12:49.616Z,5.90
2019-01-24T21:15:19.048Z,5.20
2019-01-24T21:17:48.201Z,5.90
2019-01-24T21:20:19.463Z,5.37
2019-01-24T21:22:48.621Z,5.80
2019-01-24T21:25:18.501Z,6.20
2019-01-24T21:27:47.691Z,7.53
2019-01-24T21:30:22.426Z,11.50
2019-01-24T21:32:51.609Z,10.83
2019-01-24T21:35:20.746Z,11.83
2019-01-24T21:37:49.942Z,12.87
2019-01-24T21:40:19.917Z,14.47
2019-01-24T21:42:49.193Z,12.50
2019-01-24T21:45:20.566Z,12.57
2019-01-24T21:47:49.628Z,13.20
2019-01-24T21:50:19.817Z,14.07
2019-01-24T21:52:48.966Z,13.20
2019-01-24T21:55:19.132Z,13.73
2019-01-24T21:57:48.362Z,15.37
2019-01-24T22:00:19.374Z,13.27
2019-01-24T22:02:48.448Z,13.37
2019-01-24T22:05:17.610Z,13.90
2019-01-24T22:07:46.780Z,14.00
2019-01-24T22:10:17.996Z,14.27
2019-01-24T22:12:48.362Z,14.67
2019-01-24T22:15:18.484Z,14.90
2019-01-24T22:17:47.753Z,12.83
2019-01-24T22:20:17.104Z,14.67
2019-01-24T22:22:46.266Z,12.97
2019-01-24T22:25:23.751Z,14.37
2019-01-24T22:27:52.934Z,15.17
2019-01-24T22:30:25.252Z,13.23
2019-01-24T22:32:54.335Z,15.20
2019-01-24T22:35:23.468Z,13.80
2019-01-24T22:37:52.608Z,15.07
2019-01-24T22:40:21.689Z,14.50
2019-01-24T22:42:50.986Z,15.40
2019-01-24T22:45:22.108Z,14.30
2019-01-24T22:47:51.235Z,14.57
2019-01-24T22:50:20.398Z,15.27
2019-01-24T22:52:49.524Z,16.20
2019-01-24T22:55:18.598Z,15.57
2019-01-24T22:57:47.761Z,16.17
2019-01-24T23:00:53.510Z,16.80
2019-01-24T23:03:40.928Z,16.77
2019-01-24T23:06:10.087Z,15.50
2019-01-24T23:08:39.205Z,15.53
2019-01-24T23:11:08.360Z,18.17
2019-01-24T23:13:37.513Z,14.17
2019-01-24T23:16:06.733Z,16.77
2019-01-24T23:18:35.879Z,15.53
2019-01-24T23:21:05.000Z,12.67
2019-01-24T23:23:34.179Z,17.87
2019-01-24T23:26:03.314Z,12.73
2019-01-24T23:28:32.434Z,16.77
2019-01-24T23:31:01.567Z,16.93
2019-01-24T23:33:30.658Z,17.87
2019-01-24T23:35:59.785Z,17.70
2019-01-24T23:38:28.861Z,16.70
2019-01-24T23:40:57.973Z,16.00
2019-01-24T23:43:27.314Z,16.27
2019-01-24T23:45:56.411Z,17.47
2019-01-24T23:48:25.598Z,16.80
2019-01-24T23:50:54.725Z,15.57
2019-01-24T23:53:23.841Z,15.93
2019-01-24T23:55:52.930Z,16.57
2019-01-24T23:58:22.139Z,17.53
